Weather at Wonthaggi Airport

Public forecast

Using degrees Celsius for public forecast. Weather courtesy of forecast.io.

Closest aviation weather report (METAR) to Wonthaggi Airport

Closest report is Avalon Airport, 60.3 nm (111.6 km) WNW.

2024/04/12 17:30 (retrieved 35 minutes ago)

YMAV 121730Z AUTO 31007KT 9999 // NCD 10/09 Q1021 RF000/0000

Closest aviation forecast (TAF) to Wonthaggi Airport

Closest forecast is Avalon Airport, 60.3 nm (111.6 km) WNW.

2024/04/12 18:36 (retrieved 0 seconds ago)

TAF TAF YMAV 121716Z 1218/1318 29006KT 9999 FEW020 BKN050 FM130600 15007KT 9999 BKN045 FM131200 29004KT 9999 BKN045